Time;durP1;ratioP1;P1;durP2;ratioP2;P2;SDS_P1;SDS_P2;PMS_P1;PMS_P2;Temp;Humidity;BMP_temperature;BMP_pressure;BME280_temperature;BME280_humidity;BME280_pressure;Samples;Min_cycle;Max_cycle;Signal;HPM_P1;HPM_P2
2021/07/29 00:02:18;;;;;;;5.35;3.67;;;;;;;17.37;65.39;98684.84;3580203;40;20295;-69
2021/07/29 00:04:47;;;;;;;6.72;3.83;;;;;;;17.24;65.55;98680.63;3580777;40;20187;-69
2021/07/29 00:07:15;;;;;;;4.60;3.67;;;;;;;17.06;66.00;98676.25;3580676;40;20052;-69
2021/07/29 00:09:45;;;;;;;4.53;3.13;;;;;;;16.95;66.98;98682.47;3580504;40;20076;-70
2021/07/29 00:12:13;;;;;;;6.70;3.65;;;;;;;17.00;66.57;98680.69;3580404;40;20041;-70
2021/07/29 00:14:47;;;;;;;6.68;3.80;;;;;;;17.01;66.31;98682.31;3581426;40;20029;-70
2021/07/29 00:17:27;;;;;;;6.30;3.72;;;;;;;17.05;66.22;98672.78;3578101;40;20437;-69
2021/07/29 00:19:56;;;;;;;6.10;3.58;;;;;;;17.08;66.08;98663.47;3579613;40;20032;-69
2021/07/29 00:22:24;;;;;;;4.55;3.55;;;;;;;17.12;66.22;98663.81;3582495;40;20060;-69
2021/07/29 00:24:52;;;;;;;6.40;3.60;;;;;;;17.11;65.51;98659.53;3582306;40;20056;-70
2021/07/29 00:27:19;;;;;;;5.70;3.38;;;;;;;17.09;65.57;98670.44;3583067;40;20040;-69
2021/07/29 00:29:47;;;;;;;5.40;3.50;;;;;;;17.12;65.71;98669.16;3581541;40;20423;-69
2021/07/29 00:32:15;;;;;;;5.13;3.45;;;;;;;17.12;65.57;98671.84;3581507;40;20130;-70
2021/07/29 00:34:43;;;;;;;11.32;4.18;;;;;;;17.05;65.92;98664.75;3582024;40;20080;-69
2021/07/29 00:37:12;;;;;;;8.38;3.58;;;;;;;17.05;65.96;98664.75;3582284;40;20052;-70
2021/07/29 00:39:40;;;;;;;6.82;3.53;;;;;;;17.08;65.87;98668.81;3580697;40;20079;-69
2021/07/29 00:42:09;;;;;;;5.00;3.20;;;;;;;17.11;65.15;98660.34;3601053;22;20036;31
2021/07/29 00:44:37;;;;;;;3.92;3.20;;;;;;;17.11;65.43;98659.53;3578614;40;20048;-67
2021/07/29 00:47:06;;;;;;;4.47;3.95;;;;;;;17.08;65.47;98658.94;3579504;40;20046;-68
2021/07/29 00:49:34;;;;;;;7.13;4.13;;;;;;;17.03;65.48;98655.38;3563792;40;20030;-68
2021/07/29 00:52:02;;;;;;;6.82;3.50;;;;;;;16.90;66.21;98663.66;3563472;40;20022;-68
2021/07/29 00:54:31;;;;;;;10.85;4.00;;;;;;;16.75;66.60;98656.97;3573287;40;20081;-68
2021/07/29 00:57:00;;;;;;;7.22;4.18;;;;;;;16.71;66.59;98661.13;3573249;40;20045;-67
2021/07/29 00:59:28;;;;;;;5.80;3.78;;;;;;;16.67;67.00;98654.63;3571570;40;20041;-67
2021/07/29 01:01:55;;;;;;;3.95;3.55;;;;;;;16.55;67.19;98643.97;3569360;40;20054;-68
2021/07/29 01:04:23;;;;;;;6.45;4.35;;;;;;;16.47;67.42;98643.53;3570044;40;20054;-67
2021/07/29 01:06:51;;;;;;;4.68;3.40;;;;;;;16.37;67.62;98644.13;3570847;40;20033;-67
2021/07/29 01:09:19;;;;;;;6.43;4.20;;;;;;;16.42;68.31;98643.44;3570463;40;20375;-68
2021/07/29 01:11:48;;;;;;;6.07;3.65;;;;;;;16.41;67.82;98644.44;3569584;40;20077;-68
2021/07/29 01:14:16;;;;;;;4.53;4.00;;;;;;;16.38;67.98;98636.94;3571016;40;20057;-68
2021/07/29 01:16:44;;;;;;;6.53;3.95;;;;;;;16.34;68.49;98640.06;3569516;40;20069;-68
2021/07/29 01:19:13;;;;;;;5.22;3.67;;;;;;;16.37;68.41;98637.97;3569711;40;20363;-68
2021/07/29 01:21:53;;;;;;;6.20;3.97;;;;;;;16.39;68.49;98630.56;3569485;40;20057;-68
2021/07/29 01:24:22;;;;;;;4.38;3.83;;;;;;;16.46;68.13;98631.25;3569613;40;20045;-68
2021/07/29 01:26:49;;;;;;;5.03;3.40;;;;;;;16.47;68.14;98638.19;3570430;40;20048;-68
2021/07/29 01:29:17;;;;;;;4.78;3.72;;;;;;;16.48;67.81;98624.59;3569449;40;20275;-67
2021/07/29 01:31:45;;;;;;;7.53;3.55;;;;;;;16.52;68.11;98628.44;3570616;40;20061;-67
2021/07/29 01:34:13;;;;;;;5.93;3.88;;;;;;;16.58;67.27;98629.38;3570374;40;20030;-67
2021/07/29 01:36:41;;;;;;;7.45;3.67;;;;;;;16.65;67.29;98632.69;3570587;40;20323;-68
2021/07/29 01:39:10;;;;;;;7.47;3.95;;;;;;;16.70;67.21;98629.34;3570221;40;20033;-67
2021/07/29 01:41:38;;;;;;;6.63;3.75;;;;;;;16.64;66.86;98631.06;3570492;40;20391;-67
2021/07/29 01:44:06;;;;;;;5.05;3.63;;;;;;;16.62;66.80;98627.03;3569515;40;20049;-68
2021/07/29 01:46:33;;;;;;;4.28;3.88;;;;;;;16.50;67.26;98627.06;3570284;40;20085;-68
2021/07/29 01:49:01;;;;;;;7.75;4.22;;;;;;;16.36;67.64;98634.47;3570938;40;20026;-68
2021/07/29 01:51:29;;;;;;;6.35;3.60;;;;;;;16.31;67.88;98627.19;3575124;40;20048;-67
2021/07/29 01:53:57;;;;;;;4.53;3.60;;;;;;;16.31;67.62;98629.06;3575458;40;20026;-67
2021/07/29 01:56:26;;;;;;;23.95;21.30;;;;;;;16.35;67.70;98603.53;3577143;40;20060;-67
2021/07/29 01:58:53;;;;;;;4.72;4.03;;;;;;;16.32;67.41;98610.13;3575202;40;20033;-68
2021/07/29 02:01:23;;;;;;;6.57;3.63;;;;;;;16.33;67.18;98614.44;3571871;40;20036;-68
2021/07/29 02:03:51;;;;;;;7.43;3.83;;;;;;;16.36;66.88;98610.47;3571040;40;20043;-68
2021/07/29 02:06:19;;;;;;;5.05;3.17;;;;;;;16.40;66.91;98608.97;3571041;40;20053;-68
2021/07/29 02:08:47;;;;;;;4.85;3.35;;;;;;;16.40;66.72;98611.63;3570704;40;20414;-67
2021/07/29 02:11:15;;;;;;;5.03;3.45;;;;;;;16.43;67.12;98619.16;3571026;40;20026;-68
2021/07/29 02:13:44;;;;;;;4.20;3.65;;;;;;;16.41;66.53;98617.78;3570482;40;20334;-67
2021/07/29 02:16:12;;;;;;;4.85;3.60;;;;;;;16.33;66.78;98619.78;3570585;40;20140;-67
2021/07/29 02:18:40;;;;;;;5.57;3.47;;;;;;;16.33;66.66;98625.13;3570536;40;20411;-67
2021/07/29 02:21:10;;;;;;;6.05;3.60;;;;;;;16.38;66.50;98624.41;3570423;40;20033;-68
2021/07/29 02:23:38;;;;;;;5.43;3.60;;;;;;;16.41;66.67;98631.13;3570517;40;20029;-68
2021/07/29 02:26:06;;;;;;;6.45;4.15;;;;;;;16.41;66.47;98631.13;3570411;40;20045;-68
2021/07/29 02:28:33;;;;;;;3.83;3.28;;;;;;;16.41;66.53;98631.13;3569021;40;20041;-68
2021/07/29 02:31:02;;;;;;;4.10;2.90;;;;;;;16.41;66.27;98631.13;3568855;40;20118;-68
2021/07/29 02:33:30;;;;;;;4.55;3.00;;;;;;;16.43;66.68;98629.84;3569634;40;20041;-68
2021/07/29 02:35:58;;;;;;;6.00;4.07;;;;;;;16.43;66.26;98631.69;3569233;40;20382;-68
2021/07/29 02:38:26;;;;;;;4.88;3.53;;;;;;;16.40;66.43;98629.50;3569922;40;20061;-68
2021/07/29 02:40:53;;;;;;;5.70;3.70;;;;;;;16.41;66.53;98639.13;3570088;40;20375;-68
2021/07/29 02:43:21;;;;;;;5.45;3.67;;;;;;;16.41;66.85;98641.78;3570442;40;20046;-68
2021/07/29 02:45:49;;;;;;;4.50;3.60;;;;;;;16.32;66.90;98644.81;3568702;40;20053;-68
2021/07/29 02:48:18;;;;;;;5.60;3.50;;;;;;;16.28;67.05;98650.84;3569909;40;20049;-68
2021/07/29 02:50:51;;;;;;;5.40;3.38;;;;;;;16.18;67.42;98642.63;3569983;40;20033;-69
2021/07/29 02:53:20;;;;;;;4.50;3.70;;;;;;;16.20;67.50;98643.19;3570100;40;20061;-67
2021/07/29 02:55:47;;;;;;;6.63;3.42;;;;;;;16.25;67.50;98643.34;3570362;40;20454;-68
2021/07/29 02:58:16;;;;;;;4.80;3.50;;;;;;;16.26;67.07;98652.94;3570410;40;20315;-68
2021/07/29 03:00:43;;;;;;;6.65;3.50;;;;;;;16.29;67.47;98641.81;3569663;40;20045;-68
2021/07/29 03:03:11;;;;;;;4.68;3.47;;;;;;;16.29;67.38;98644.50;3568646;40;20030;-68
2021/07/29 03:05:40;;;;;;;7.45;3.38;;;;;;;16.29;67.22;98642.63;3569599;40;20045;-68
2021/07/29 03:08:08;;;;;;;4.45;3.50;;;;;;;16.35;67.40;98651.53;3568616;40;20042;-68
2021/07/29 03:10:36;;;;;;;4.32;3.20;;;;;;;16.35;67.23;98649.69;3569334;40;20123;-68
2021/07/29 03:13:04;;;;;;;5.82;3.58;;;;;;;16.40;67.33;98643.66;3569237;40;20037;-68
2021/07/29 03:15:33;;;;;;;6.03;3.58;;;;;;;16.44;67.16;98646.66;3569313;40;20142;-68
2021/07/29 03:18:04;;;;;;;3.75;3.30;;;;;;;16.41;66.99;98645.28;3569847;40;20142;-68
2021/07/29 03:20:31;;;;;;;5.60;3.25;;;;;;;16.44;67.12;98644.78;3570130;40;20061;-68
2021/07/29 03:23:00;;;;;;;4.70;3.40;;;;;;;16.46;67.33;98649.91;3569451;40;20044;-68
2021/07/29 03:25:28;;;;;;;5.80;3.70;;;;;;;16.50;67.21;98645.75;3569260;40;20370;-68
2021/07/29 03:27:56;;;;;;;5.25;3.33;;;;;;;16.56;66.93;98644.78;3569104;40;20032;-68
2021/07/29 03:30:24;;;;;;;6.18;3.70;;;;;;;16.54;66.92;98638.88;3569528;40;20025;-68
2021/07/29 03:32:52;;;;;;;4.85;3.83;;;;;;;16.53;66.92;98642.56;3569465;40;20084;-68
2021/07/29 03:35:19;;;;;;;7.72;3.80;;;;;;;16.56;67.01;98650.13;3568527;40;20038;-69
2021/07/29 03:37:47;;;;;;;5.68;3.10;;;;;;;16.59;66.82;98647.00;3570028;40;20134;-68
2021/07/29 03:40:16;;;;;;;4.00;3.47;;;;;;;16.63;67.00;98655.34;3569368;40;20026;-68
2021/07/29 03:42:44;;;;;;;5.75;3.40;;;;;;;16.60;66.56;98649.41;3571940;40;20030;-68
2021/07/29 03:45:13;;;;;;;3.65;3.00;;;;;;;16.56;67.04;98650.94;3573937;40;20113;-68
2021/07/29 03:47:41;;;;;;;5.88;4.10;;;;;;;16.56;66.71;98655.47;3569820;40;20344;-68
2021/07/29 03:50:09;;;;;;;5.35;3.25;;;;;;;16.55;67.33;98649.31;3569367;40;20045;-68
2021/07/29 03:52:37;;;;;;;5.10;3.65;;;;;;;16.55;67.22;98653.84;3568399;40;20078;-68
2021/07/29 03:55:07;;;;;;;4.88;3.80;;;;;;;16.57;67.12;98659.75;3568967;40;20029;-68
2021/07/29 03:57:36;;;;;;;4.35;3.50;;;;;;;16.59;67.08;98660.34;3570055;40;20068;-69
2021/07/29 04:00:05;;;;;;;8.30;3.45;;;;;;;16.59;67.14;98658.47;3569206;40;20052;-69
2021/07/29 04:02:34;;;;;;;5.22;3.55;;;;;;;16.56;67.10;98656.25;3571032;40;20057;-68
2021/07/29 04:05:02;;;;;;;6.88;3.90;;;;;;;16.63;66.88;98663.34;3571093;40;20287;-69
2021/07/29 04:07:30;;;;;;;5.20;3.50;;;;;;;16.63;66.92;98664.16;3573098;40;20033;-69
2021/07/29 04:09:59;;;;;;;5.55;3.30;;;;;;;16.69;67.10;98659.72;3573656;40;20033;-69
2021/07/29 04:12:27;;;;;;;6.20;3.42;;;;;;;16.70;66.91;98664.84;3572603;40;20030;-68
2021/07/29 04:14:56;;;;;;;6.68;3.72;;;;;;;16.69;66.48;98659.72;3572802;40;20053;-69
2021/07/29 04:17:24;;;;;;;4.13;3.58;;;;;;;16.72;67.03;98662.72;3571834;40;20026;-69
2021/07/29 04:19:54;;;;;;;5.55;3.80;;;;;;;16.74;66.42;98654.53;3569708;40;20407;-69
2021/07/29 04:22:21;;;;;;;4.72;3.72;;;;;;;16.76;66.55;98658.56;3569974;40;20026;-68
2021/07/29 04:24:49;;;;;;;5.38;3.45;;;;;;;16.79;66.44;98668.00;3569756;40;20049;-68
2021/07/29 04:27:17;;;;;;;9.13;4.03;;;;;;;16.77;66.00;98665.53;3569448;40;20057;-68
2021/07/29 04:29:45;;;;;;;13.68;3.80;;;;;;;16.80;66.22;98662.41;3571677;40;20038;-69
2021/07/29 04:32:15;;;;;;;4.97;3.42;;;;;;;16.84;66.06;98660.88;3573580;40;20056;-69
2021/07/29 04:34:43;;;;;;;5.07;3.50;;;;;;;16.90;65.82;98668.97;3572228;40;20065;-68
2021/07/29 04:37:11;;;;;;;4.05;3.38;;;;;;;16.89;65.48;98672.72;3571962;40;20049;-68
2021/07/29 04:39:41;;;;;;;3.83;3.47;;;;;;;16.93;65.33;98665.84;3569003;40;20483;-68
2021/07/29 04:42:09;;;;;;;5.85;3.30;;;;;;;16.97;65.57;98669.66;3569205;40;20073;-69
2021/07/29 04:44:37;;;;;;;6.63;3.50;;;;;;;17.03;65.09;98666.06;3571192;40;20041;-68
2021/07/29 04:47:05;;;;;;;4.80;3.60;;;;;;;17.05;65.42;98670.09;3570350;40;20050;-68
2021/07/29 04:49:35;;;;;;;4.70;3.40;;;;;;;17.09;65.01;98673.09;3571362;40;20053;-68
2021/07/29 04:52:04;;;;;;;4.68;3.33;;;;;;;17.13;65.02;98671.59;3571183;40;20045;-68
2021/07/29 04:54:32;;;;;;;4.28;3.17;;;;;;;17.22;64.75;98674.69;3570465;40;20053;-68
2021/07/29 04:57:00;;;;;;;6.68;3.17;;;;;;;17.29;64.75;98670.81;3569769;40;20064;-69
2021/07/29 04:59:28;;;;;;;5.68;3.00;;;;;;;17.27;64.09;98666.78;3569440;40;20093;-68
2021/07/29 05:01:56;;;;;;;4.20;3.47;;;;;;;17.22;64.52;98664.81;3569636;40;20099;-68
2021/07/29 05:04:24;;;;;;;5.07;3.00;;;;;;;17.30;64.53;98668.97;3569474;40;20090;-68
2021/07/29 05:06:53;;;;;;;5.65;3.40;;;;;;;17.43;63.98;98657.16;3569957;40;20029;-68
2021/07/29 05:09:20;;;;;;;7.78;4.28;;;;;;;17.55;63.58;98653.41;3568743;40;20057;-68
2021/07/29 05:11:48;;;;;;;4.93;3.47;;;;;;;17.68;63.32;98646.13;3570848;40;20046;-68
2021/07/29 05:14:16;;;;;;;5.18;2.63;;;;;;;17.79;62.88;98658.59;3570577;40;20090;-68
2021/07/29 05:16:44;;;;;;;6.22;3.75;;;;;;;17.87;62.56;98663.56;3569374;40;20034;-68
2021/07/29 05:19:12;;;;;;;5.93;3.63;;;;;;;17.94;62.20;98666.06;3569007;40;20053;-68
2021/07/29 05:21:40;;;;;;;4.85;2.97;;;;;;;18.00;61.94;98671.28;3568734;40;20045;-68
2021/07/29 05:24:10;;;;;;;6.18;3.42;;;;;;;18.12;62.24;98675.69;3569876;40;20036;-69
2021/07/29 05:26:38;;;;;;;3.22;2.67;;;;;;;18.17;61.69;98692.66;3568671;40;20041;-68
2021/07/29 05:29:05;;;;;;;6.70;4.65;;;;;;;18.17;61.17;98689.19;3568648;40;20057;-68
2021/07/29 05:31:33;;;;;;;6.60;3.20;;;;;;;18.17;61.18;98692.66;3568609;40;20061;-68
2021/07/29 05:34:01;;;;;;;7.90;3.28;;;;;;;18.26;61.03;98687.69;3568858;40;20046;-68
2021/07/29 05:36:29;;;;;;;3.50;3.05;;;;;;;18.19;60.60;98698.56;3569626;40;20041;-69
2021/07/29 05:38:58;;;;;;;3.58;3.22;;;;;;;18.18;60.93;98696.13;3569469;40;20049;-69
2021/07/29 05:41:27;;;;;;;5.85;3.65;;;;;;;18.20;61.01;98691.34;3568689;40;20045;-68
2021/07/29 05:43:54;;;;;;;5.93;2.60;;;;;;;18.14;60.69;98695.00;3569184;40;20041;-68
2021/07/29 05:46:22;;;;;;;5.78;3.63;;;;;;;18.11;61.56;98693.63;3570091;40;20064;-68
2021/07/29 05:48:51;;;;;;;3.88;2.97;;;;;;;18.14;61.11;98685.13;3569257;40;20369;-68
2021/07/29 05:51:19;;;;;;;4.93;3.50;;;;;;;18.02;61.50;98690.53;3569622;40;20391;-68
2021/07/29 05:53:47;;;;;;;7.78;3.67;;;;;;;18.03;61.57;98700.19;3568973;40;20056;-68
2021/07/29 05:56:15;;;;;;;3.60;2.97;;;;;;;18.05;61.66;98694.59;3569326;40;20045;-68
2021/07/29 05:58:44;;;;;;;4.03;3.08;;;;;;;18.05;61.79;98692.75;3569790;40;20060;-69
2021/07/29 06:01:12;;;;;;;6.28;3.05;;;;;;;18.06;61.88;98697.03;3569063;40;20337;-69
2021/07/29 06:03:40;;;;;;;4.45;2.95;;;;;;;18.05;61.84;98689.25;3570436;40;20049;-69
2021/07/29 06:06:08;;;;;;;4.55;3.15;;;;;;;18.07;61.50;98695.97;3570211;40;20045;-69
2021/07/29 06:08:38;;;;;;;4.75;3.20;;;;;;;18.11;61.43;98698.97;3569297;40;20048;-68
2021/07/29 06:11:06;;;;;;;6.75;3.63;;;;;;;18.12;61.69;98697.09;3570061;40;20084;-68
2021/07/29 06:13:34;;;;;;;3.42;3.10;;;;;;;18.18;61.14;98710.31;3570052;40;20042;-68
2021/07/29 06:16:05;;;;;;;4.22;3.00;;;;;;;18.20;61.34;98699.38;3569470;40;20052;-68
2021/07/29 06:18:34;;;;;;;5.47;3.10;;;;;;;18.19;61.03;98701.22;3568887;40;20126;-68
2021/07/29 06:21:05;;;;;;;4.80;3.45;;;;;;;18.24;61.05;98706.66;3569251;40;20150;-68
2021/07/29 06:23:32;;;;;;;2.92;2.63;;;;;;;18.31;60.28;98714.53;3570031;40;20060;-68
2021/07/29 06:26:00;;;;;;;4.53;2.88;;;;;;;18.31;60.44;98715.34;3568743;40;20131;-68
2021/07/29 06:28:32;;;;;;;9.10;2.83;;;;;;;18.33;60.26;98720.47;3569867;40;20026;-68
2021/07/29 06:31:00;;;;;;;3.88;2.85;;;;;;;18.41;60.29;98712.03;3568905;40;20045;-68
2021/07/29 06:33:29;;;;;;;7.03;2.83;;;;;;;18.40;59.95;98728.31;3568607;40;20049;-69
2021/07/29 06:36:03;;;;;;;3.80;2.80;;;;;;;18.33;59.67;98720.47;3569553;40;20050;-68
2021/07/29 06:38:31;;;;;;;5.28;2.80;;;;;;;18.34;60.14;98723.94;3573044;40;20050;-68
2021/07/29 06:40:59;;;;;;;4.57;2.67;;;;;;;18.41;59.77;98732.59;3573534;40;20032;-68
2021/07/29 06:43:27;;;;;;;3.97;2.58;;;;;;;18.42;58.97;98727.00;3569498;40;20049;-69
2021/07/29 06:45:55;;;;;;;3.90;2.53;;;;;;;18.48;59.24;98725.22;3568296;40;20299;-69
2021/07/29 06:48:23;;;;;;;4.93;2.95;;;;;;;18.57;59.20;98718.38;3567791;40;20045;-69
2021/07/29 06:50:52;;;;;;;5.03;2.65;;;;;;;18.68;58.62;98722.00;3568025;40;20053;-69
2021/07/29 06:53:20;;;;;;;9.93;3.08;;;;;;;18.69;58.03;98720.94;3568818;40;20057;-69
2021/07/29 06:55:48;;;;;;;7.53;2.63;;;;;;;18.68;57.60;98722.81;3567723;40;20480;-69
2021/07/29 06:58:16;;;;;;;4.93;2.88;;;;;;;18.71;57.72;98725.03;3568649;40;20057;-69
2021/07/29 07:00:44;;;;;;;5.03;2.67;;;;;;;18.72;57.67;98733.88;3568090;40;20053;-69
2021/07/29 07:03:12;;;;;;;4.00;2.55;;;;;;;18.70;57.32;98727.97;3569618;40;20045;-69
2021/07/29 07:05:45;;;;;;;3.40;2.38;;;;;;;18.74;56.54;98727.22;3569227;40;20385;-69
2021/07/29 07:08:14;;;;;;;3.20;2.28;;;;;;;18.71;56.06;98737.63;3569615;40;20042;-69
2021/07/29 07:10:42;;;;;;;4.07;2.67;;;;;;;18.73;56.64;98727.47;3568757;40;20022;-69
2021/07/29 07:13:10;;;;;;;5.55;2.05;;;;;;;18.78;55.78;98735.59;3569865;40;20029;-69
2021/07/29 07:15:38;;;;;;;3.20;2.20;;;;;;;18.82;55.52;98742.06;3568791;40;20411;-69
2021/07/29 07:18:05;;;;;;;3.05;2.08;;;;;;;18.85;55.36;98736.19;3569304;40;20061;-68
2021/07/29 07:20:33;;;;;;;6.47;3.08;;;;;;;18.91;55.11;98732.53;3568962;40;20030;-68
2021/07/29 07:23:01;;;;;;;3.95;2.50;;;;;;;18.97;55.02;98744.13;3568879;40;20140;-68
2021/07/29 07:25:30;;;;;;;4.25;2.20;;;;;;;18.99;54.93;98742.81;3567989;40;20045;-68
2021/07/29 07:27:58;;;;;;;5.47;2.42;;;;;;;19.09;54.71;98746.69;3568866;40;20045;-69
2021/07/29 07:30:26;;;;;;;2.63;2.22;;;;;;;19.09;54.34;98750.16;3567625;40;20055;-69
2021/07/29 07:32:53;;;;;;;4.57;2.20;;;;;;;19.14;54.59;98746.75;3567296;40;20396;-70
2021/07/29 07:35:22;;;;;;;4.40;2.17;;;;;;;19.24;54.19;98747.69;3568307;40;20057;-70
2021/07/29 07:37:49;;;;;;;8.55;2.50;;;;;;;19.33;53.93;98747.25;3567619;40;20037;-70
2021/07/29 07:40:17;;;;;;;2.55;2.20;;;;;;;19.36;53.47;98750.22;3568497;40;20056;-70
2021/07/29 07:42:47;;;;;;;5.05;2.45;;;;;;;19.37;53.88;98745.69;3568878;40;20033;-70
2021/07/29 07:45:15;;;;;;;5.28;2.47;;;;;;;19.55;53.79;98746.16;3568552;40;20068;-70
2021/07/29 07:47:43;;;;;;;6.38;2.75;;;;;;;19.70;53.77;98742.84;3568710;40;20104;-70
2021/07/29 07:50:11;;;;;;;2.50;2.10;;;;;;;19.80;53.13;98744.81;3568759;40;20407;-70
2021/07/29 07:52:39;;;;;;;4.88;2.20;;;;;;;19.84;52.79;98745.09;3567817;40;20070;-70
2021/07/29 07:55:08;;;;;;;2.78;2.45;;;;;;;19.88;52.67;98740.84;3568508;40;20052;-70
2021/07/29 07:57:36;;;;;;;5.32;2.13;;;;;;;19.97;52.37;98744.72;3567739;40;20042;-70
2021/07/29 08:00:06;;;;;;;2.85;1.95;;;;;;;20.15;52.35;98741.63;3568655;40;20407;-70
2021/07/29 08:02:34;;;;;;;3.40;1.90;;;;;;;20.38;51.47;98740.47;3567749;40;20054;-70
2021/07/29 08:05:04;;;;;;;6.75;2.63;;;;;;;20.52;50.47;98736.28;3567657;40;20029;-69
2021/07/29 08:07:32;;;;;;;2.42;2.00;;;;;;;20.53;50.62;98740.63;3568516;40;20049;-70
2021/07/29 08:10:00;;;;;;;3.40;2.10;;;;;;;20.62;49.66;98738.25;3567721;40;20048;-70
2021/07/29 08:12:28;;;;;;;2.85;1.92;;;;;;;20.53;49.16;98739.78;3568714;40;20040;-69
2021/07/29 08:14:56;;;;;;;4.75;2.00;;;;;;;20.49;49.65;98744.88;3567711;40;20049;-69
2021/07/29 08:17:25;;;;;;;4.60;2.15;;;;;;;20.49;49.36;98741.34;3568565;40;20052;-69
2021/07/29 08:19:53;;;;;;;4.43;2.15;;;;;;;20.56;48.81;98739.25;3568093;40;20056;-68
2021/07/29 08:22:21;;;;;;;3.50;1.95;;;;;;;20.78;49.15;98739.16;3567205;40;20034;-70
2021/07/29 08:24:48;;;;;;;3.05;1.98;;;;;;;20.89;48.50;98726.56;3567991;40;20049;-69
2021/07/29 08:27:16;;;;;;;5.65;2.53;;;;;;;20.98;48.58;98739.25;3568902;40;20034;-70
2021/07/29 08:29:44;;;;;;;3.92;2.25;;;;;;;21.02;47.71;98740.34;3568922;40;20061;-69
2021/07/29 08:32:12;;;;;;;3.25;2.08;;;;;;;20.89;47.60;98730.03;3569346;40;20025;-69
2021/07/29 08:34:41;;;;;;;3.55;2.47;;;;;;;20.83;47.74;98727.63;3568730;40;20093;-68
2021/07/29 08:37:08;;;;;;;2.75;2.08;;;;;;;20.87;47.73;98724.13;3567771;40;20325;-68
2021/07/29 08:39:36;;;;;;;3.42;2.30;;;;;;;20.97;47.54;98721.47;3567519;40;20122;-68
2021/07/29 08:42:06;;;;;;;3.47;2.60;;;;;;;20.95;46.77;98733.59;3567715;40;20058;-69
2021/07/29 08:44:34;;;;;;;3.22;2.22;;;;;;;20.94;47.53;98734.63;3569573;40;20042;-69
2021/07/29 08:47:08;;;;;;;8.07;2.33;;;;;;;21.06;46.16;98731.72;3569010;40;20049;-69
2021/07/29 08:49:57;;;;;;;3.10;2.20;;;;;;;20.89;46.95;98730.03;3568678;40;20089;-71
2021/07/29 08:52:30;;;;;;;3.35;2.13;;;;;;;20.84;46.58;98739.97;3569031;40;20322;-70
2021/07/29 08:54:58;;;;;;;4.80;2.30;;;;;;;20.72;46.07;98727.53;3568941;40;20073;-70
2021/07/29 08:57:28;;;;;;;6.10;2.47;;;;;;;20.91;46.07;98722.53;3569435;40;20101;-71
2021/07/29 08:59:56;;;;;;;2.28;1.92;;;;;;;21.01;45.72;98729.84;3568241;40;20084;-71
2021/07/29 09:02:25;;;;;;;2.30;2.10;;;;;;;21.26;45.77;98724.53;3569386;40;20049;-70
2021/07/29 09:05:18;;;;;;;5.97;2.38;;;;;;;21.59;44.80;98732.47;3568868;40;20085;-70
2021/07/29 09:08:01;;;;;;;4.15;2.50;;;;;;;21.63;44.09;98737.03;3569758;40;20053;-70
2021/07/29 09:10:30;;;;;;;2.80;2.10;;;;;;;21.54;43.86;98733.25;3569722;40;20060;-70
2021/07/29 09:13:09;;;;;;;4.95;2.33;;;;;;;21.43;44.06;98737.84;3570498;40;20376;-70
2021/07/29 09:15:38;;;;;;;4.28;2.30;;;;;;;21.39;43.52;98734.06;3570087;40;20056;-69
2021/07/29 09:18:06;;;;;;;3.13;2.35;;;;;;;21.35;43.60;98732.97;3569516;40;20057;-69
2021/07/29 09:20:36;;;;;;;2.72;2.03;;;;;;;21.17;44.94;98733.41;3568830;40;20089;-69
2021/07/29 09:23:18;;;;;;;3.50;1.98;;;;;;;20.96;45.48;98727.94;3568815;40;20045;-69
2021/07/29 09:25:47;;;;;;;3.22;2.20;;;;;;;20.94;45.83;98740.00;3569487;40;20056;-71
2021/07/29 09:28:36;;;;;;;2.55;2.17;;;;;;;20.95;45.13;98731.69;3568528;40;20041;-71
2021/07/29 09:31:17;;;;;;;3.33;2.33;;;;;;;21.14;45.19;98739.28;3568432;40;20056;-71
2021/07/29 09:34:00;;;;;;;6.10;2.72;;;;;;;21.31;43.71;98731.00;3568786;40;20045;-70
2021/07/29 09:36:32;;;;;;;5.88;2.38;;;;;;;21.35;43.64;98729.44;3569680;40;20053;-70
2021/07/29 09:39:19;;;;;;;4.20;2.15;;;;;;;21.49;43.39;98734.06;3569297;40;20056;-69
2021/07/29 09:41:49;;;;;;;3.80;2.47;;;;;;;21.75;43.68;98729.53;3569710;40;20408;-70
2021/07/29 09:44:40;;;;;;;3.75;2.22;;;;;;;22.13;43.38;98732.84;3569100;40;20048;-70
2021/07/29 09:47:08;;;;;;;2.53;2.20;;;;;;;22.29;42.03;98727.41;3569621;40;20045;-70
2021/07/29 09:49:37;;;;;;;4.57;2.00;;;;;;;22.29;41.93;98732.81;3568173;40;20062;-70
2021/07/29 09:52:07;;;;;;;2.97;2.10;;;;;;;22.43;41.88;98729.31;3569321;40;20407;-70
2021/07/29 09:54:38;;;;;;;3.05;2.10;;;;;;;22.15;41.46;98733.34;3569431;40;20052;-70
2021/07/29 09:57:06;;;;;;;2.97;1.88;;;;;;;21.83;41.92;98736.28;3569638;40;20420;-69
2021/07/29 09:59:34;;;;;;;2.22;2.03;;;;;;;21.66;42.11;98746.47;3572049;40;20053;-69
2021/07/29 10:02:03;;;;;;;2.83;1.90;;;;;;;21.45;42.29;98738.34;3573527;40;20340;-68
2021/07/29 10:04:37;;;;;;;2.85;2.00;;;;;;;21.38;42.30;98734.31;3572501;40;20045;-69
2021/07/29 10:07:10;;;;;;;2.13;1.92;;;;;;;21.28;42.68;98743.94;3571901;40;20017;-70
2021/07/29 10:09:45;;;;;;;1.92;1.73;;;;;;;21.60;42.54;98736.78;3571789;40;20052;-69
2021/07/29 10:12:20;;;;;;;2.95;2.15;;;;;;;21.80;42.48;98736.81;3572967;40;20049;-69
2021/07/29 10:14:50;;;;;;;8.82;2.28;;;;;;;21.59;42.22;98725.19;3571623;40;20041;-69
2021/07/29 10:17:18;;;;;;;6.10;2.90;;;;;;;21.52;42.82;98730.84;3569046;40;20053;-69
2021/07/29 10:20:19;;;;;;;4.05;2.45;;;;;;;21.47;42.68;98730.84;3572316;40;20060;-69
2021/07/29 10:22:49;;;;;;;2.70;2.30;;;;;;;21.65;43.11;98729.53;3572653;40;20052;-71
2021/07/29 10:25:17;;;;;;;3.25;2.22;;;;;;;21.62;42.70;98737.31;3573254;40;20042;-70
2021/07/29 10:28:23;;;;;;;2.63;2.00;;;;;;;21.57;43.02;98740.00;3573812;40;20068;-70
2021/07/29 10:30:55;;;;;;;3.15;1.92;;;;;;;21.45;42.35;98748.31;3573540;40;20138;-70
2021/07/29 10:33:24;;;;;;;2.83;2.20;;;;;;;21.27;43.28;98752.28;3573591;40;20026;-70
2021/07/29 10:35:52;;;;;;;2.53;2.30;;;;;;;21.20;43.03;98741.75;3572029;40;20445;-70
2021/07/29 10:38:51;;;;;;;3.30;2.15;;;;;;;21.19;42.86;98745.50;3569930;40;20509;-69
2021/07/29 10:41:45;;;;;;;2.80;1.98;;;;;;;21.49;43.14;98731.38;3570276;40;20089;-69
2021/07/29 10:44:50;;;;;;;1.90;1.80;;;;;;;21.95;43.06;98733.31;3570405;40;20041;-69
2021/07/29 10:47:41;;;;;;;2.10;1.90;;;;;;;22.31;42.22;98738.75;3569679;40;20048;-69
2021/07/29 10:50:13;;;;;;;2.45;2.08;;;;;;;22.33;41.54;98736.56;3572526;40;20480;-70
2021/07/29 10:52:46;;;;;;;2.70;2.20;;;;;;;22.21;41.49;98735.00;3572566;40;20054;-69
2021/07/29 10:55:15;;;;;;;2.10;1.90;;;;;;;22.02;40.53;98731.19;3574541;40;20256;-69
2021/07/29 10:57:57;;;;;;;2.22;2.03;;;;;;;21.84;40.74;98732.53;3570859;40;20065;-69
2021/07/29 11:00:25;;;;;;;3.00;2.17;;;;;;;21.67;41.11;98734.63;3568516;40;20081;-69
2021/07/29 11:02:55;;;;;;;3.53;2.20;;;;;;;21.47;41.48;98732.69;3569481;40;20406;-69
2021/07/29 11:05:29;;;;;;;3.75;1.75;;;;;;;21.46;41.95;98736.47;3570431;40;20045;-69
2021/07/29 11:07:57;;;;;;;3.42;1.88;;;;;;;21.73;41.62;98726.31;3568248;40;20043;-72
2021/07/29 11:10:29;;;;;;;3.55;1.80;;;;;;;21.90;41.77;98719.88;3568396;40;20053;-69
2021/07/29 11:12:57;;;;;;;2.90;1.70;;;;;;;22.01;41.47;98718.81;3568126;40;20045;-70
2021/07/29 11:15:27;;;;;;;2.03;1.85;;;;;;;22.08;41.31;98724.72;3569025;40;20053;-69
2021/07/29 11:18:08;;;;;;;4.65;2.00;;;;;;;21.99;41.32;98735.22;3569653;40;20107;-69
2021/07/29 11:20:36;;;;;;;2.70;2.10;;;;;;;21.96;41.57;98714.22;3568287;40;20041;-69
2021/07/29 11:23:03;;;;;;;3.47;2.20;;;;;;;21.87;40.33;98731.97;3568139;40;20285;-70
2021/07/29 11:25:33;;;;;;;2.42;1.92;;;;;;;21.76;40.31;98712.34;3568111;40;20300;-69
2021/07/29 11:28:13;;;;;;;2.22;1.67;;;;;;;21.72;41.12;98713.13;3567865;40;20108;-69
2021/07/29 11:30:44;;;;;;;3.35;2.47;;;;;;;21.86;41.31;98706.13;3569377;40;20135;-68
2021/07/29 11:33:22;;;;;;;2.45;1.80;;;;;;;22.18;40.36;98710.47;3569657;40;20053;-69
2021/07/29 11:35:51;;;;;;;6.80;2.00;;;;;;;22.20;40.39;98709.13;3567904;40;20049;-69
2021/07/29 11:38:20;;;;;;;3.95;2.53;;;;;;;22.30;40.39;98707.50;3567466;40;20049;-69
2021/07/29 11:40:59;;;;;;;3.72;2.22;;;;;;;22.26;40.11;98709.94;3567829;40;20107;-70
2021/07/29 11:43:28;;;;;;;3.65;2.10;;;;;;;21.95;40.36;98717.19;3568135;40;20045;-69
2021/07/29 11:46:08;;;;;;;2.35;2.00;;;;;;;21.96;40.98;98714.22;3569257;40;20388;-69
2021/07/29 11:48:36;;;;;;;2.50;1.90;;;;;;;21.87;40.94;98715.81;3567776;40;20049;-68